createdAt,value
2019-05-19T00:04:52.330Z,12.27
2019-05-19T00:09:44.790Z,12.73
2019-05-19T00:14:37.537Z,12.73
2019-05-19T00:19:29.973Z,11.60
2019-05-19T00:24:23.421Z,11.28
2019-05-19T00:29:15.870Z,11.90
2019-05-19T00:34:08.377Z,11.18
2019-05-19T00:39:00.271Z,11.33
2019-05-19T00:43:53.031Z,11.70
2019-05-19T00:48:45.795Z,11.63
2019-05-19T00:53:37.871Z,13.70
2019-05-19T00:58:33.335Z,11.95
2019-05-19T01:03:25.864Z,10.93
2019-05-19T01:08:18.726Z,12.23
2019-05-19T01:13:11.305Z,12.28
2019-05-19T01:18:03.881Z,12.30
2019-05-19T01:22:56.571Z,11.12
2019-05-19T01:27:48.820Z,11.38
2019-05-19T01:32:41.521Z,11.97
2019-05-19T01:37:33.801Z,12.03
2019-05-19T01:42:26.637Z,12.10
2019-05-19T01:47:19.477Z,12.23
2019-05-19T01:52:11.624Z,12.47
2019-05-19T01:57:04.145Z,14.63
2019-05-19T02:01:56.322Z,14.10
2019-05-19T02:06:48.761Z,14.28
2019-05-19T02:11:44.550Z,14.05
2019-05-19T02:16:36.966Z,13.50
2019-05-19T02:21:29.600Z,14.15
2019-05-19T02:26:22.156Z,14.75
2019-05-19T02:31:14.451Z,13.80
2019-05-19T02:36:07.193Z,15.78
2019-05-19T02:41:02.900Z,16.00
2019-05-19T02:45:58.622Z,17.70
2019-05-19T02:50:53.286Z,17.40
2019-05-19T02:55:46.282Z,18.30
2019-05-19T03:00:41.645Z,16.95
2019-05-19T03:05:33.819Z,17.57
2019-05-19T03:10:26.344Z,17.32
2019-05-19T03:15:18.769Z,16.23
2019-05-19T03:20:11.137Z,17.67
2019-05-19T03:25:03.763Z,17.25
2019-05-19T03:29:57.677Z,19.03
2019-05-19T03:34:49.983Z,20.23
2019-05-19T03:39:42.439Z,19.40
2019-05-19T03:44:34.637Z,20.23
2019-05-19T03:49:27.151Z,18.82
2019-05-19T03:54:19.401Z,19.45
2019-05-19T03:59:12.015Z,17.42
2019-05-19T04:04:04.605Z,18.07
2019-05-19T04:08:57.046Z,17.43
2019-05-19T04:13:49.434Z,22.25
2019-05-19T04:18:41.888Z,21.12
2019-05-19T04:23:34.106Z,20.85
2019-05-19T04:28:26.265Z,22.32
2019-05-19T04:33:18.655Z,22.32
2019-05-19T04:38:11.293Z,22.52
2019-05-19T04:43:04.983Z,22.70
2019-05-19T04:47:57.651Z,22.55
2019-05-19T04:52:50.063Z,20.97
2019-05-19T04:57:42.586Z,22.15
2019-05-19T05:02:34.830Z,22.25
2019-05-19T05:07:27.304Z,23.02
2019-05-19T05:12:19.969Z,22.17
2019-05-19T05:17:12.377Z,20.15
2019-05-19T05:22:05.175Z,22.77
2019-05-19T05:26:57.480Z,23.42
2019-05-19T05:31:50.393Z,25.20
2019-05-19T05:36:42.819Z,23.75
2019-05-19T05:41:35.580Z,22.58
2019-05-19T05:46:27.625Z,22.02
2019-05-19T05:51:20.326Z,19.48
2019-05-19T05:56:12.682Z,19.87
2019-05-19T06:01:05.535Z,20.15
2019-05-19T06:05:58.377Z,20.20
2019-05-19T06:10:50.926Z,17.75
2019-05-19T06:15:43.196Z,17.30
2019-05-19T06:20:35.769Z,17.70
2019-05-19T06:25:28.729Z,18.30
2019-05-19T06:30:21.205Z,18.73
2019-05-19T06:35:13.971Z,17.80
2019-05-19T06:40:08.852Z,17.48
2019-05-19T06:45:01.948Z,15.78
2019-05-19T06:49:54.100Z,13.37
2019-05-19T06:54:46.419Z,11.57
2019-05-19T06:59:39.089Z,9.93
2019-05-19T07:04:31.227Z,9.63
2019-05-19T07:09:23.454Z,9.25
2019-05-19T07:14:16.108Z,7.78
2019-05-19T07:19:08.631Z,9.83
2019-05-19T07:24:00.924Z,8.35
2019-05-19T07:28:53.433Z,8.50
2019-05-19T07:33:46.020Z,9.45
2019-05-19T07:38:38.729Z,7.70
2019-05-19T07:43:31.292Z,8.80
2019-05-19T07:48:23.849Z,9.05
2019-05-19T07:53:16.369Z,7.37
2019-05-19T07:58:08.812Z,7.45
2019-05-19T08:03:01.627Z,8.00
2019-05-19T08:07:54.233Z,7.55
2019-05-19T08:12:46.719Z,7.22
2019-05-19T08:17:39.136Z,7.25
2019-05-19T08:22:31.390Z,7.17
2019-05-19T08:27:23.755Z,7.17
2019-05-19T08:32:16.416Z,6.30
2019-05-19T08:37:09.138Z,6.95
2019-05-19T08:42:01.189Z,7.07
2019-05-19T08:46:53.995Z,7.40
2019-05-19T08:51:46.365Z,7.37
2019-05-19T08:56:39.136Z,6.50
2019-05-19T09:01:31.593Z,6.53
2019-05-19T09:06:24.256Z,6.50
2019-05-19T09:11:16.789Z,6.50
2019-05-19T09:16:09.401Z,6.92
2019-05-19T09:21:01.833Z,6.47
2019-05-19T09:25:54.192Z,6.70
2019-05-19T09:30:46.440Z,7.65
2019-05-19T09:35:38.962Z,8.40
2019-05-19T09:40:31.597Z,5.72
2019-05-19T09:45:24.330Z,6.30
2019-05-19T09:50:17.060Z,4.60
2019-05-19T09:55:09.772Z,4.28
2019-05-19T10:00:02.240Z,5.20
2019-05-19T10:04:54.631Z,5.00
2019-05-19T10:09:56.187Z,4.87
2019-05-19T10:14:48.642Z,4.73
2019-05-19T10:19:42.265Z,5.20
2019-05-19T10:24:34.825Z,4.72
2019-05-19T10:29:27.534Z,5.40
2019-05-19T10:34:23.232Z,5.92
2019-05-19T10:39:15.600Z,6.15
2019-05-19T10:44:10.367Z,6.13
2019-05-19T10:49:02.446Z,6.65
2019-05-19T10:53:54.720Z,7.35
2019-05-19T10:58:47.355Z,7.33
2019-05-19T11:03:39.717Z,7.50
2019-05-19T11:08:32.450Z,9.55
2019-05-19T11:13:25.005Z,6.22
2019-05-19T11:18:18.103Z,4.70
2019-05-19T11:23:10.395Z,3.60
2019-05-19T11:28:02.845Z,3.70
2019-05-19T11:32:55.347Z,3.10
2019-05-19T11:37:47.586Z,3.50
2019-05-19T11:42:40.680Z,3.25
2019-05-19T11:47:35.639Z,3.50
2019-05-19T11:52:28.505Z,3.30
2019-05-19T11:57:21.209Z,2.90
2019-05-19T12:02:13.614Z,3.08
2019-05-19T12:07:06.234Z,3.00
2019-05-19T12:11:58.870Z,2.80
2019-05-19T12:16:51.516Z,2.80
2019-05-19T12:21:44.043Z,2.37
2019-05-19T12:26:36.416Z,2.92
2019-05-19T12:31:28.934Z,2.37
2019-05-19T12:36:21.371Z,2.50
2019-05-19T12:41:13.870Z,2.55
2019-05-19T12:46:15.814Z,2.40
2019-05-19T12:51:00.096Z,2.50
2019-05-19T12:55:53.298Z,2.55
2019-05-19T13:00:46.098Z,2.47
2019-05-19T13:05:38.446Z,2.95
2019-05-19T13:10:30.820Z,3.35
2019-05-19T13:15:23.496Z,3.72
2019-05-19T13:20:15.889Z,4.28
2019-05-19T13:25:08.992Z,4.30
2019-05-19T13:30:01.285Z,4.60
2019-05-19T13:34:53.936Z,5.57
2019-05-19T13:39:45.952Z,4.60
2019-05-19T13:44:38.551Z,4.37
2019-05-19T13:49:30.925Z,4.65
2019-05-19T13:54:23.808Z,3.98
2019-05-19T13:59:16.412Z,4.15
2019-05-19T14:04:09.596Z,4.00
2019-05-19T14:09:02.261Z,4.35
2019-05-19T14:13:54.315Z,4.97
2019-05-19T14:18:46.924Z,4.70
2019-05-19T14:23:39.516Z,5.00
2019-05-19T14:28:32.442Z,4.92
2019-05-19T14:33:24.695Z,4.62
2019-05-19T14:38:16.960Z,5.28
2019-05-19T14:43:09.755Z,5.03
2019-05-19T14:48:02.144Z,4.80
2019-05-19T14:52:54.600Z,3.80
2019-05-19T14:57:46.989Z,3.72
2019-05-19T15:02:41.194Z,3.85
2019-05-19T15:12:19.273Z,3.60
2019-05-19T15:17:11.744Z,2.98
2019-05-19T15:22:04.423Z,3.30
2019-05-19T15:26:56.846Z,3.80
2019-05-19T15:31:49.619Z,3.37
2019-05-19T15:36:41.907Z,3.02
2019-05-19T15:41:34.301Z,2.85
2019-05-19T15:46:26.631Z,2.65
2019-05-19T15:51:28.553Z,2.10
2019-05-19T15:56:13.297Z,3.72
2019-05-19T16:01:05.898Z,2.47
2019-05-19T16:05:57.987Z,2.75
2019-05-19T16:10:50.191Z,2.50
2019-05-19T16:15:42.844Z,2.90
2019-05-19T16:20:35.163Z,2.55
2019-05-19T16:25:27.814Z,2.98
2019-05-19T16:30:19.929Z,2.50
2019-05-19T16:35:12.412Z,2.70
2019-05-19T16:40:05.742Z,2.80
2019-05-19T16:44:58.427Z,2.10
2019-05-19T16:49:50.797Z,2.60
2019-05-19T16:54:47.423Z,2.37
2019-05-19T16:59:39.976Z,2.20
2019-05-19T17:04:32.436Z,2.40
2019-05-19T17:09:24.674Z,2.62
2019-05-19T17:14:16.861Z,2.70
2019-05-19T17:19:09.181Z,2.35
2019-05-19T17:24:01.998Z,2.58
2019-05-19T17:29:00.683Z,2.75
2019-05-19T17:33:48.170Z,2.65
2019-05-19T17:38:40.634Z,2.60
2019-05-19T17:43:33.072Z,2.40
2019-05-19T17:48:26.783Z,2.47
2019-05-19T17:53:18.970Z,2.70
2019-05-19T17:58:11.383Z,3.20
2019-05-19T18:03:04.024Z,3.50
2019-05-19T18:07:56.513Z,3.87
2019-05-19T18:12:48.813Z,3.90
2019-05-19T18:17:41.933Z,3.60
2019-05-19T18:22:34.131Z,3.42
2019-05-19T18:27:26.752Z,5.70
2019-05-19T18:32:19.435Z,3.37
2019-05-19T18:37:13.564Z,4.30
2019-05-19T18:42:06.328Z,4.35
2019-05-19T18:46:58.620Z,4.20
2019-05-19T18:51:50.999Z,3.47
2019-05-19T18:56:43.708Z,4.28
2019-05-19T19:01:36.226Z,3.92
2019-05-19T19:06:31.750Z,5.95
2019-05-19T19:11:23.657Z,4.53
2019-05-19T19:16:15.900Z,3.90
2019-05-19T19:21:07.750Z,3.65
2019-05-19T19:26:00.345Z,4.08
2019-05-19T19:30:52.774Z,3.80
2019-05-19T19:35:45.263Z,5.17
2019-05-19T19:40:37.929Z,5.30
2019-05-19T19:45:30.460Z,5.20
2019-05-19T19:50:22.955Z,4.10
2019-05-19T19:55:15.096Z,4.10
2019-05-19T20:00:18.031Z,4.60
2019-05-19T20:05:01.528Z,4.40
2019-05-19T20:09:56.823Z,4.00
2019-05-19T20:14:49.477Z,4.33
2019-05-19T20:19:43.239Z,4.80
2019-05-19T20:24:35.237Z,4.70
2019-05-19T20:29:27.791Z,5.45
2019-05-19T20:34:20.371Z,5.97
2019-05-19T20:39:12.936Z,5.30
2019-05-19T20:44:05.232Z,6.33
2019-05-19T20:48:58.154Z,6.45
2019-05-19T20:53:53.130Z,5.05
2019-05-19T20:58:44.052Z,5.72
2019-05-19T21:03:36.501Z,5.60
2019-05-19T21:08:28.983Z,6.20
2019-05-19T21:13:21.523Z,6.05
2019-05-19T21:18:13.922Z,6.60
2019-05-19T21:23:06.766Z,6.37
2019-05-19T21:27:58.988Z,6.72
2019-05-19T21:32:51.857Z,7.55
2019-05-19T21:37:44.451Z,9.20
2019-05-19T21:42:37.371Z,7.42
2019-05-19T21:47:29.541Z,8.05
2019-05-19T21:52:21.987Z,8.20
2019-05-19T21:57:14.295Z,8.80
2019-05-19T22:02:07.157Z,9.75
2019-05-19T22:07:07.062Z,10.63
2019-05-19T22:11:59.553Z,12.00
2019-05-19T22:16:52.019Z,13.35
2019-05-19T22:21:44.179Z,11.95
2019-05-19T22:26:37.042Z,11.25
2019-05-19T22:31:36.461Z,10.43
2019-05-19T22:36:23.550Z,9.60
2019-05-19T22:41:15.940Z,9.25
2019-05-19T22:46:08.736Z,9.95
2019-05-19T22:51:01.349Z,9.58
2019-05-19T22:55:54.196Z,9.48
2019-05-19T23:00:46.725Z,10.45
2019-05-19T23:05:39.177Z,10.90
2019-05-19T23:10:32.103Z,12.88
2019-05-19T23:15:24.565Z,12.37
2019-05-19T23:20:18.379Z,12.30
2019-05-19T23:25:11.150Z,12.80
2019-05-19T23:30:06.614Z,13.55
2019-05-19T23:34:58.946Z,14.30
2019-05-19T23:39:54.051Z,16.05
2019-05-19T23:44:45.830Z,16.20
2019-05-19T23:49:38.507Z,16.35
2019-05-19T23:54:31.177Z,19.15
2019-05-19T23:59:23.424Z,18.32
